createdAt,value
2019-01-15T00:00:25.464Z,2.37
2019-01-15T00:02:58.233Z,2.97
2019-01-15T00:05:30.474Z,2.10
2019-01-15T00:08:01.666Z,2.30
2019-01-15T00:10:33.337Z,2.10
2019-01-15T00:13:04.261Z,2.17
2019-01-15T00:15:37.127Z,2.63
2019-01-15T00:18:08.699Z,2.40
2019-01-15T00:20:43.220Z,2.43
2019-01-15T00:23:14.407Z,3.20
2019-01-15T00:25:48.885Z,2.00
2019-01-15T00:28:20.195Z,2.53
2019-01-15T00:30:51.580Z,2.73
2019-01-15T00:33:22.887Z,2.40
2019-01-15T00:35:53.987Z,2.13
2019-01-15T00:38:25.426Z,2.57
2019-01-15T00:40:56.834Z,3.07
2019-01-15T00:43:32.463Z,2.23
2019-01-15T00:46:03.775Z,2.47
2019-01-15T00:48:35.511Z,3.20
2019-01-15T00:51:07.888Z,2.33
2019-01-15T00:53:39.641Z,2.53
2019-01-15T00:56:12.561Z,2.40
2019-01-15T00:58:44.000Z,2.63
2019-01-15T01:01:15.212Z,2.50
2019-01-15T01:03:46.773Z,2.47
2019-01-15T01:06:18.504Z,2.80
2019-01-15T01:08:50.311Z,3.37
2019-01-15T01:11:21.974Z,3.13
2019-01-15T01:13:53.522Z,2.67
2019-01-15T01:16:24.771Z,3.37
2019-01-15T01:18:56.021Z,3.03
2019-01-15T01:21:27.032Z,3.10
2019-01-15T01:23:58.133Z,3.00
2019-01-15T01:26:29.045Z,2.87
2019-01-15T01:29:00.245Z,3.37
2019-01-15T01:31:31.395Z,2.33
2019-01-15T01:34:04.713Z,2.73
2019-01-15T01:36:37.587Z,2.33
2019-01-15T01:39:10.169Z,2.90
2019-01-15T01:41:42.124Z,3.93
2019-01-15T01:44:16.149Z,3.23
2019-01-15T01:46:47.690Z,2.57
2019-01-15T01:49:18.939Z,2.53
2019-01-15T01:51:50.112Z,2.67
2019-01-15T01:54:21.498Z,2.30
2019-01-15T01:56:55.966Z,3.03
2019-01-15T01:59:27.773Z,2.53
2019-01-15T02:02:03.476Z,3.20
2019-01-15T02:04:37.429Z,2.17
2019-01-15T02:07:08.737Z,2.33
2019-01-15T02:09:41.025Z,3.07
2019-01-15T02:12:12.201Z,3.43
2019-01-15T02:14:43.461Z,2.93
2019-01-15T02:17:16.730Z,2.83
2019-01-15T02:19:47.814Z,2.47
2019-01-15T02:22:19.248Z,2.87
2019-01-15T02:24:51.170Z,3.37
2019-01-15T02:27:22.497Z,2.63
2019-01-15T02:29:54.914Z,3.20
2019-01-15T02:32:26.120Z,3.33
2019-01-15T02:34:57.756Z,2.67
2019-01-15T02:37:29.122Z,3.10
2019-01-15T02:40:00.636Z,2.60
2019-01-15T02:42:31.680Z,2.83
2019-01-15T02:45:02.829Z,2.60
2019-01-15T02:47:35.234Z,2.93
2019-01-15T02:50:08.350Z,2.97
2019-01-15T02:52:42.286Z,3.90
2019-01-15T02:55:13.500Z,2.93
2019-01-15T02:57:45.234Z,3.03
2019-01-15T03:00:21.857Z,2.80
2019-01-15T03:02:53.051Z,2.50
2019-01-15T03:05:24.475Z,2.67
2019-01-15T03:07:58.425Z,3.37
2019-01-15T03:10:29.848Z,2.20
2019-01-15T03:13:01.291Z,2.43
2019-01-15T03:15:32.304Z,2.13
2019-01-15T03:18:03.411Z,2.37
2019-01-15T03:20:34.997Z,4.47
2019-01-15T03:23:06.384Z,2.30
2019-01-15T03:25:37.747Z,2.17
2019-01-15T03:28:10.640Z,3.43
2019-01-15T03:30:42.172Z,2.80
2019-01-15T03:33:13.023Z,2.83
2019-01-15T03:35:44.465Z,2.33
2019-01-15T03:38:16.543Z,2.73
2019-01-15T03:40:48.006Z,2.27
2019-01-15T03:43:19.353Z,2.30
2019-01-15T03:45:50.870Z,2.80
2019-01-15T03:48:21.726Z,2.37
2019-01-15T03:50:53.109Z,4.03
2019-01-15T03:53:24.103Z,3.03
2019-01-15T03:55:55.142Z,3.43
2019-01-15T03:58:26.379Z,2.17
2019-01-15T04:00:57.741Z,2.60
2019-01-15T04:03:29.167Z,2.47
2019-01-15T04:06:00.331Z,3.83
2019-01-15T04:08:31.409Z,2.50
2019-01-15T04:11:02.428Z,2.80
2019-01-15T04:13:33.964Z,3.23
2019-01-15T04:16:05.236Z,2.80
2019-01-15T04:18:36.860Z,2.57
2019-01-15T04:21:08.162Z,3.17
2019-01-15T04:23:39.695Z,3.13
2019-01-15T04:26:11.392Z,2.63
2019-01-15T04:28:42.579Z,3.80
2019-01-15T04:31:13.664Z,1.73
2019-01-15T04:33:47.311Z,2.40
2019-01-15T04:36:19.104Z,1.73
2019-01-15T04:38:50.487Z,2.80
2019-01-15T04:41:21.814Z,3.30
2019-01-15T04:43:53.353Z,2.73
2019-01-15T04:46:24.666Z,2.43
2019-01-15T04:48:55.597Z,2.13
2019-01-15T04:51:27.018Z,5.33
2019-01-15T04:53:58.555Z,2.40
2019-01-15T04:56:29.929Z,3.33
2019-01-15T04:59:01.221Z,2.60
2019-01-15T05:01:32.445Z,2.23
2019-01-15T05:04:03.725Z,3.33
2019-01-15T05:06:35.016Z,2.60
2019-01-15T05:09:08.430Z,2.03
2019-01-15T05:11:40.047Z,2.40
2019-01-15T05:14:11.110Z,2.10
2019-01-15T05:16:42.381Z,2.53
2019-01-15T05:19:13.544Z,2.33
2019-01-15T05:21:47.809Z,2.53
2019-01-15T05:24:19.166Z,2.70
2019-01-15T05:26:50.654Z,2.27
2019-01-15T05:29:22.022Z,2.43
2019-01-15T05:31:53.539Z,2.50
2019-01-15T05:34:25.325Z,2.10
2019-01-15T05:36:56.629Z,2.17
2019-01-15T05:39:27.892Z,2.77
2019-01-15T05:42:01.867Z,2.90
2019-01-15T05:44:35.178Z,2.50
2019-01-15T05:47:06.862Z,2.20
2019-01-15T05:49:40.698Z,2.63
2019-01-15T05:52:13.653Z,2.60
2019-01-15T05:54:47.870Z,2.63
2019-01-15T05:57:18.989Z,3.30
2019-01-15T05:59:50.493Z,2.23
2019-01-15T06:02:21.578Z,2.93
2019-01-15T06:04:52.824Z,3.03
2019-01-15T06:07:23.844Z,3.90
2019-01-15T06:09:55.126Z,2.90
2019-01-15T06:12:27.243Z,2.97
2019-01-15T06:14:58.573Z,3.77
2019-01-15T06:17:29.563Z,2.90
2019-01-15T06:20:00.767Z,3.07
2019-01-15T06:22:31.888Z,2.60
2019-01-15T06:25:03.028Z,2.33
2019-01-15T06:27:33.954Z,2.00
2019-01-15T06:30:05.987Z,3.07
2019-01-15T06:32:40.155Z,2.47
2019-01-15T06:35:11.506Z,3.67
2019-01-15T06:37:45.963Z,2.57
2019-01-15T06:40:17.182Z,2.50
2019-01-15T06:42:49.865Z,3.53
2019-01-15T06:45:32.863Z,2.40
2019-01-15T06:48:05.329Z,2.23
2019-01-15T06:50:40.329Z,3.03
2019-01-15T06:53:14.730Z,3.30
2019-01-15T06:55:48.684Z,2.73
2019-01-15T06:58:21.219Z,3.23
2019-01-15T07:00:52.177Z,2.70
2019-01-15T07:03:22.925Z,2.97
2019-01-15T07:05:56.021Z,2.60
2019-01-15T07:08:27.014Z,2.20
2019-01-15T07:11:00.918Z,2.90
2019-01-15T07:13:34.314Z,2.77
2019-01-15T07:16:06.644Z,2.83
2019-01-15T07:18:37.925Z,2.50
2019-01-15T07:21:09.382Z,2.50
2019-01-15T07:23:41.313Z,2.17
2019-01-15T07:26:12.546Z,2.37
2019-01-15T07:28:43.908Z,2.83
2019-01-15T07:31:19.579Z,2.50
2019-01-15T07:34:01.795Z,4.03
2019-01-15T07:36:33.345Z,2.73
2019-01-15T07:39:07.252Z,2.87
2019-01-15T07:41:38.243Z,2.80
2019-01-15T07:44:09.399Z,3.03
2019-01-15T07:46:40.420Z,2.63
2019-01-15T07:49:11.367Z,1.73
2019-01-15T07:51:42.118Z,2.80
2019-01-15T07:54:14.651Z,2.70
2019-01-15T07:56:47.070Z,1.90
2019-01-15T07:59:19.696Z,3.10
2019-01-15T08:01:51.031Z,3.73
2019-01-15T08:04:22.583Z,2.77
2019-01-15T08:06:54.758Z,3.30
2019-01-15T08:09:26.103Z,2.63
2019-01-15T08:11:57.138Z,2.30
2019-01-15T08:14:30.572Z,2.50
2019-01-15T08:17:01.392Z,2.20
2019-01-15T08:19:32.687Z,2.50
2019-01-15T08:22:04.611Z,2.60
2019-01-15T08:24:36.596Z,2.50
2019-01-15T08:27:09.267Z,3.13
2019-01-15T08:29:41.084Z,2.17
2019-01-15T08:32:12.291Z,2.83
2019-01-15T08:34:47.591Z,2.00
2019-01-15T08:37:21.364Z,2.60
2019-01-15T08:39:52.524Z,2.80
2019-01-15T08:42:29.741Z,2.33
2019-01-15T08:45:00.932Z,2.20
2019-01-15T08:47:33.544Z,2.67
2019-01-15T08:50:06.292Z,2.70
2019-01-15T08:52:39.320Z,1.90
2019-01-15T08:55:10.314Z,2.83
2019-01-15T08:57:42.315Z,2.60
2019-01-15T09:00:16.522Z,2.57
2019-01-15T09:02:47.770Z,3.43
2019-01-15T09:05:18.723Z,3.73
2019-01-15T09:07:49.943Z,2.37
2019-01-15T09:10:21.550Z,2.80
2019-01-15T09:12:55.202Z,3.27
2019-01-15T09:15:26.259Z,2.37
2019-01-15T09:17:59.383Z,2.80
2019-01-15T09:20:30.326Z,3.60
2019-01-15T09:23:02.991Z,3.77
2019-01-15T09:25:35.446Z,3.27
2019-01-15T09:28:10.735Z,2.83
2019-01-15T09:30:42.265Z,3.20
2019-01-15T09:33:16.031Z,2.83
2019-01-15T09:35:49.988Z,2.93
2019-01-15T09:38:25.811Z,3.10
2019-01-15T09:41:00.787Z,3.10
2019-01-15T09:43:32.321Z,4.10
2019-01-15T09:46:03.314Z,2.60
2019-01-15T09:48:36.451Z,3.83
2019-01-15T09:51:07.574Z,3.13
2019-01-15T09:53:38.511Z,3.57
2019-01-15T09:56:09.550Z,3.70
2019-01-15T09:58:41.070Z,3.53
2019-01-15T10:01:15.078Z,4.00
2019-01-15T10:03:47.290Z,3.60
2019-01-15T10:06:21.189Z,3.30
2019-01-15T10:08:52.137Z,3.63
2019-01-15T10:11:26.998Z,4.20
2019-01-15T10:13:57.887Z,3.17
2019-01-15T10:16:32.357Z,3.63
2019-01-15T10:19:04.650Z,3.47
2019-01-15T10:21:40.973Z,4.33
2019-01-15T10:24:15.008Z,3.53
2019-01-15T10:26:49.167Z,3.50
2019-01-15T10:29:24.289Z,3.20
2019-01-15T10:32:37.146Z,3.97
2019-01-15T10:35:24.875Z,3.13
2019-01-15T10:38:18.401Z,3.60
2019-01-15T10:40:53.958Z,3.30
2019-01-15T10:43:29.707Z,2.67
2019-01-15T10:46:04.234Z,3.37
2019-01-15T10:48:37.831Z,3.47
2019-01-15T10:51:09.224Z,3.03
2019-01-15T10:53:42.811Z,3.27
2019-01-15T10:56:13.656Z,2.90
2019-01-15T10:58:48.287Z,3.47
2019-01-15T11:01:19.423Z,3.40
2019-01-15T11:03:50.289Z,2.90
2019-01-15T11:06:21.924Z,3.50
2019-01-15T11:08:53.076Z,3.53
2019-01-15T11:11:27.469Z,3.50
2019-01-15T11:13:58.427Z,3.77
2019-01-15T11:16:29.584Z,3.17
2019-01-15T11:19:01.209Z,4.60
2019-01-15T11:21:32.443Z,3.10
2019-01-15T11:24:03.945Z,3.30
2019-01-15T11:26:40.907Z,2.90
2019-01-15T11:29:13.291Z,3.23
2019-01-15T11:31:45.954Z,2.57
2019-01-15T11:34:19.245Z,2.83
2019-01-15T11:36:50.245Z,3.73
2019-01-15T11:39:21.276Z,2.83
2019-01-15T11:41:55.624Z,4.23
2019-01-15T11:44:27.097Z,3.47
2019-01-15T11:46:58.335Z,3.53
2019-01-15T11:49:29.672Z,3.37
2019-01-15T11:52:06.045Z,3.90
2019-01-15T11:54:37.114Z,2.73
2019-01-15T11:57:13.942Z,2.50
2019-01-15T11:59:44.986Z,3.10
2019-01-15T12:02:29.771Z,2.97
2019-01-15T12:05:17.804Z,2.90
2019-01-15T12:08:20.202Z,2.57
2019-01-15T12:11:16.174Z,3.47
2019-01-15T12:14:05.564Z,3.33
2019-01-15T12:16:55.021Z,3.30
2019-01-15T12:19:41.550Z,3.37
2019-01-15T12:22:31.676Z,3.33
2019-01-15T12:25:25.182Z,3.73
2019-01-15T12:28:14.751Z,3.70
2019-01-15T12:31:03.466Z,2.70
2019-01-15T12:33:53.155Z,3.07
2019-01-15T12:36:46.260Z,3.20
2019-01-15T12:39:39.096Z,3.10
2019-01-15T12:42:46.772Z,3.50
2019-01-15T12:45:36.856Z,3.63
2019-01-15T12:48:25.338Z,3.60
2019-01-15T12:51:37.065Z,2.77
2019-01-15T12:54:33.412Z,3.80
2019-01-15T12:57:32.092Z,2.80
2019-01-15T13:00:29.968Z,2.77
2019-01-15T13:03:22.754Z,3.77
2019-01-15T13:06:10.719Z,2.80
2019-01-15T13:09:19.306Z,2.50
2019-01-15T13:12:15.927Z,3.47
2019-01-15T13:15:08.785Z,3.13
2019-01-15T13:18:04.566Z,3.37
2019-01-15T13:21:15.396Z,3.50
2019-01-15T13:24:07.471Z,3.10
2019-01-15T13:27:10.496Z,3.70
2019-01-15T13:30:03.478Z,3.27
2019-01-15T13:32:51.303Z,3.73
2019-01-15T13:35:47.562Z,3.80
2019-01-15T13:38:53.160Z,2.90
2019-01-15T13:41:43.130Z,3.93
2019-01-15T13:44:31.677Z,3.50
2019-01-15T13:47:20.092Z,3.97
2019-01-15T13:50:13.262Z,4.07
2019-01-15T13:53:02.147Z,2.93
2019-01-15T13:55:49.079Z,3.93
2019-01-15T13:58:44.671Z,4.43
2019-01-15T14:01:38.201Z,4.10
2019-01-15T14:04:41.269Z,4.47
2019-01-15T14:07:31.290Z,4.10
2019-01-15T14:10:21.473Z,3.40
2019-01-15T14:13:34.307Z,3.67
2019-01-15T14:16:24.564Z,4.33
2019-01-15T14:19:18.065Z,3.97
2019-01-15T14:22:08.235Z,4.00
2019-01-15T14:25:09.063Z,3.80
2019-01-15T14:27:53.176Z,3.80
2019-01-15T14:30:50.108Z,5.17
2019-01-15T14:33:55.095Z,4.40
2019-01-15T14:36:46.538Z,3.87
2019-01-15T14:39:39.781Z,4.67
2019-01-15T14:42:35.820Z,5.27
2019-01-15T14:45:26.060Z,4.90
2019-01-15T14:48:16.391Z,4.57
2019-01-15T14:51:38.987Z,5.23
2019-01-15T14:54:38.106Z,4.53
2019-01-15T14:57:26.305Z,4.67
2019-01-15T15:00:28.257Z,4.90
2019-01-15T15:03:35.326Z,4.50
2019-01-15T15:06:30.010Z,4.33
2019-01-15T15:09:21.415Z,4.30
2019-01-15T15:12:11.369Z,4.17
2019-01-15T15:15:12.263Z,4.57
2019-01-15T15:17:59.013Z,4.53
2019-01-15T15:20:40.817Z,4.67
2019-01-15T15:23:36.573Z,4.27
2019-01-15T15:26:30.048Z,3.80
2019-01-15T15:29:32.708Z,4.20
2019-01-15T15:32:33.504Z,4.63
2019-01-15T15:35:26.709Z,4.70
2019-01-15T15:38:16.246Z,5.33
2019-01-15T15:41:08.549Z,4.63
2019-01-15T15:44:09.185Z,3.83
2019-01-15T15:46:59.780Z,4.77
2019-01-15T15:50:12.449Z,4.17
2019-01-15T15:53:07.788Z,4.40
2019-01-15T15:56:07.404Z,3.80
2019-01-15T15:59:00.195Z,4.00
2019-01-15T16:01:56.464Z,4.50
2019-01-15T16:04:46.484Z,3.47
2019-01-15T16:07:39.587Z,5.40
2019-01-15T16:10:33.570Z,4.87
2019-01-15T16:13:23.126Z,3.83
2019-01-15T16:16:30.038Z,4.90
2019-01-15T16:19:32.213Z,4.30
2019-01-15T16:22:19.460Z,4.47
2019-01-15T16:25:11.844Z,5.53
2019-01-15T16:28:00.736Z,4.90
2019-01-15T16:31:04.978Z,4.23
2019-01-15T16:33:57.746Z,4.50
2019-01-15T16:36:45.555Z,4.67
2019-01-15T16:39:36.382Z,5.37
2019-01-15T16:42:27.781Z,5.10
2019-01-15T16:45:32.692Z,4.43
2019-01-15T16:48:31.088Z,5.50
2019-01-15T16:51:19.171Z,4.67
2019-01-15T16:54:21.932Z,5.47
2019-01-15T16:57:18.658Z,5.23
2019-01-15T17:00:14.582Z,5.60
2019-01-15T17:03:07.243Z,6.57
2019-01-15T17:06:00.395Z,6.03
2019-01-15T17:09:09.220Z,6.57
2019-01-15T17:12:06.264Z,6.30
2019-01-15T17:14:57.494Z,5.87
2019-01-15T17:17:43.794Z,6.97
2019-01-15T17:20:39.287Z,5.83
2019-01-15T17:23:32.458Z,6.63
2019-01-15T17:26:31.351Z,6.87
2019-01-15T17:29:43.648Z,6.07
2019-01-15T17:32:51.531Z,6.13
2019-01-15T17:35:43.232Z,5.37
2019-01-15T17:38:34.530Z,5.73
2019-01-15T17:41:53.102Z,6.30
2019-01-15T17:44:44.538Z,5.60
2019-01-15T17:47:37.091Z,5.63
2019-01-15T17:50:34.615Z,5.40
2019-01-15T17:53:26.419Z,5.13
2019-01-15T17:56:19.790Z,5.67
2019-01-15T17:59:10.821Z,5.10
2019-01-15T18:02:22.295Z,5.50
2019-01-15T18:05:09.848Z,5.00
2019-01-15T18:07:58.439Z,5.47
2019-01-15T18:10:50.396Z,6.10
2019-01-15T18:13:36.091Z,5.03
2019-01-15T18:16:29.982Z,5.27
2019-01-15T18:19:13.115Z,5.57
2019-01-15T18:22:06.918Z,5.90
2019-01-15T18:24:59.247Z,5.77
2019-01-15T18:27:42.637Z,5.90
2019-01-15T18:30:46.265Z,4.80
2019-01-15T18:33:44.328Z,7.20
2019-01-15T18:36:35.978Z,5.50
2019-01-15T18:39:51.579Z,5.90
2019-01-15T18:42:57.084Z,6.27
2019-01-15T18:45:59.229Z,6.17
2019-01-15T18:48:52.971Z,5.90
2019-01-15T18:51:43.321Z,6.17
2019-01-15T18:54:29.946Z,6.40
2019-01-15T18:57:24.691Z,6.37
2019-01-15T19:00:14.539Z,6.23
2019-01-15T19:03:17.231Z,7.57
2019-01-15T19:06:27.251Z,6.23
2019-01-15T19:09:26.061Z,5.53
2019-01-15T19:12:34.997Z,6.43
2019-01-15T19:15:37.158Z,5.93
2019-01-15T19:18:32.565Z,6.47
2019-01-15T19:21:23.677Z,6.30
2019-01-15T19:24:23.779Z,5.77
2019-01-15T19:27:28.357Z,6.03
2019-01-15T19:30:32.322Z,5.60
2019-01-15T19:33:35.308Z,7.23
2019-01-15T19:36:28.615Z,6.00
2019-01-15T19:39:07.596Z,6.37
2019-01-15T19:42:19.139Z,6.37
2019-01-15T19:45:16.310Z,6.70
2019-01-15T19:48:11.252Z,7.37
2019-01-15T19:50:53.899Z,5.93
2019-01-15T19:54:01.783Z,5.70
2019-01-15T19:56:52.215Z,5.47
2019-01-15T19:59:44.800Z,6.10
2019-01-15T20:02:45.506Z,6.40
2019-01-15T20:05:54.934Z,5.27
2019-01-15T20:08:57.824Z,6.10
2019-01-15T20:12:06.766Z,6.07
2019-01-15T20:15:12.804Z,5.97
2019-01-15T20:18:04.087Z,4.77
2019-01-15T20:21:04.881Z,4.67
2019-01-15T20:24:04.474Z,4.90
2019-01-15T20:26:55.274Z,4.47
2019-01-15T20:30:07.832Z,5.17
2019-01-15T20:33:21.084Z,4.90
2019-01-15T20:36:14.657Z,6.17
2019-01-15T20:39:16.276Z,4.70
2019-01-15T20:42:10.584Z,4.77
2019-01-15T20:45:02.575Z,5.07
2019-01-15T20:47:57.836Z,4.87
2019-01-15T20:50:51.137Z,5.73
2019-01-15T20:53:41.133Z,5.07
2019-01-15T20:56:51.666Z,5.53
2019-01-15T20:59:38.475Z,5.83
2019-01-15T21:02:32.282Z,5.40
2019-01-15T21:05:23.497Z,5.90
2019-01-15T21:08:16.388Z,5.37
2019-01-15T21:11:07.294Z,5.37
2019-01-15T21:14:12.767Z,5.20
2019-01-15T21:17:08.523Z,5.53
2019-01-15T21:20:10.128Z,5.67
2019-01-15T21:23:10.559Z,5.07
2019-01-15T21:26:07.035Z,5.43
2019-01-15T21:28:59.420Z,5.00
2019-01-15T21:31:49.508Z,4.83
2019-01-15T21:34:37.854Z,5.10
2019-01-15T21:37:37.443Z,4.93
2019-01-15T21:40:33.060Z,5.40
2019-01-15T21:43:32.182Z,4.83
2019-01-15T21:46:47.339Z,4.70
2019-01-15T21:49:42.036Z,5.40
2019-01-15T21:52:47.779Z,5.70
2019-01-15T21:55:36.043Z,5.47
2019-01-15T21:58:47.433Z,5.07
2019-01-15T22:01:43.539Z,4.67
2019-01-15T22:04:32.977Z,5.13
2019-01-15T22:07:34.185Z,4.60
2019-01-15T22:10:24.169Z,5.23
2019-01-15T22:13:10.265Z,4.83
2019-01-15T22:15:54.410Z,4.93
2019-01-15T22:18:53.821Z,4.90
2019-01-15T22:21:44.209Z,5.37
2019-01-15T22:24:43.831Z,4.63
2019-01-15T22:27:43.131Z,5.47
2019-01-15T22:30:51.241Z,5.00
2019-01-15T22:34:03.656Z,5.10
2019-01-15T22:36:58.046Z,4.83
2019-01-15T22:40:11.099Z,5.60
2019-01-15T22:43:01.800Z,5.27
2019-01-15T22:45:50.336Z,6.57
2019-01-15T22:48:41.133Z,6.03
2019-01-15T22:51:41.466Z,5.50
2019-01-15T22:54:48.091Z,5.70
2019-01-15T22:57:47.599Z,5.70
2019-01-15T23:00:43.098Z,6.60
2019-01-15T23:03:31.922Z,6.10
2019-01-15T23:06:22.251Z,5.80
2019-01-15T23:09:04.834Z,6.00
2019-01-15T23:11:54.917Z,5.57
2019-01-15T23:14:43.827Z,5.40
2019-01-15T23:17:41.643Z,5.57
2019-01-15T23:20:34.700Z,6.20
2019-01-15T23:23:27.875Z,6.73
2019-01-15T23:26:18.260Z,6.23
2019-01-15T23:29:11.831Z,7.03
2019-01-15T23:32:07.343Z,6.63
2019-01-15T23:35:01.320Z,6.17
2019-01-15T23:37:50.287Z,5.43
2019-01-15T23:40:47.541Z,5.60
2019-01-15T23:43:42.039Z,4.93
2019-01-15T23:46:40.928Z,4.87
2019-01-15T23:49:45.199Z,4.80
2019-01-15T23:52:50.598Z,5.57
2019-01-15T23:55:46.517Z,4.30
2019-01-15T23:58:43.697Z,4.70
